sensor_id;sensor_type;location;lat;lon;timestamp;temperature;humidity
69679;DHT22;56915;52.046;4.854;2022-07-09T00:01:28;15.60;99.90
69679;DHT22;56915;52.046;4.854;2022-07-09T00:03:55;15.60;99.90
69679;DHT22;56915;52.046;4.854;2022-07-09T00:06:22;15.60;99.90
69679;DHT22;56915;52.046;4.854;2022-07-09T00:08:48;15.60;99.90
69679;DHT22;56915;52.046;4.854;2022-07-09T00:11:15;15.60;99.90
69679;DHT22;56915;52.046;4.854;2022-07-09T00:13:42;15.60;99.90
69679;DHT22;56915;52.046;4.854;2022-07-09T00:16:09;15.60;99.90
69679;DHT22;56915;52.046;4.854;2022-07-09T00:18:36;15.60;99.90
69679;DHT22;56915;52.046;4.854;2022-07-09T00:21:03;15.50;99.90
69679;DHT22;56915;52.046;4.854;2022-07-09T00:23:30;15.50;99.90
69679;DHT22;56915;52.046;4.854;2022-07-09T00:25:57;15.40;99.90
69679;DHT22;56915;52.046;4.854;2022-07-09T00:28:24;15.30;99.90
69679;DHT22;56915;52.046;4.854;2022-07-09T00:30:51;15.20;99.90
69679;DHT22;56915;52.046;4.854;2022-07-09T00:33:17;15.20;99.90
69679;DHT22;56915;52.046;4.854;2022-07-09T00:35:44;15.20;99.90
69679;DHT22;56915;52.046;4.854;2022-07-09T00:38:11;15.20;99.90
69679;DHT22;56915;52.046;4.854;2022-07-09T00:40:38;15.10;99.90
69679;DHT22;56915;52.046;4.854;2022-07-09T00:43:21;15.10;99.90
69679;DHT22;56915;52.046;4.854;2022-07-09T00:45:48;15.00;99.90
69679;DHT22;56915;52.046;4.854;2022-07-09T00:48:16;15.00;99.90
69679;DHT22;56915;52.046;4.854;2022-07-09T00:50:43;15.00;99.90
69679;DHT22;56915;52.046;4.854;2022-07-09T00:53:13;15.10;99.90
69679;DHT22;56915;52.046;4.854;2022-07-09T00:55:41;15.10;99.90
69679;DHT22;56915;52.046;4.854;2022-07-09T00:58:11;15.10;99.90
69679;DHT22;56915;52.046;4.854;2022-07-09T01:00:39;15.10;99.90
69679;DHT22;56915;52.046;4.854;2022-07-09T01:03:07;15.10;99.90
69679;DHT22;56915;52.046;4.854;2022-07-09T01:05:34;15.10;99.90
69679;DHT22;56915;52.046;4.854;2022-07-09T01:08:08;15.00;99.90
69679;DHT22;56915;52.046;4.854;2022-07-09T01:10:35;15.00;99.90
69679;DHT22;56915;52.046;4.854;2022-07-09T01:13:03;14.90;99.90
69679;DHT22;56915;52.046;4.854;2022-07-09T01:15:31;14.90;99.90
69679;DHT22;56915;52.046;4.854;2022-07-09T01:17:58;14.80;99.90
69679;DHT22;56915;52.046;4.854;2022-07-09T01:20:27;14.80;99.90
69679;DHT22;56915;52.046;4.854;2022-07-09T01:22:55;14.80;99.90
69679;DHT22;56915;52.046;4.854;2022-07-09T01:25:38;14.70;99.90
69679;DHT22;56915;52.046;4.854;2022-07-09T01:28:07;14.70;99.90
69679;DHT22;56915;52.046;4.854;2022-07-09T01:30:36;14.70;99.90
69679;DHT22;56915;52.046;4.854;2022-07-09T01:33:03;14.70;99.90
69679;DHT22;56915;52.046;4.854;2022-07-09T01:35:29;14.70;99.90
69679;DHT22;56915;52.046;4.854;2022-07-09T01:37:56;14.70;99.90
69679;DHT22;56915;52.046;4.854;2022-07-09T01:40:24;14.80;99.90
69679;DHT22;56915;52.046;4.854;2022-07-09T01:42:50;14.80;99.90
69679;DHT22;56915;52.046;4.854;2022-07-09T01:45:17;14.80;99.90
69679;DHT22;56915;52.046;4.854;2022-07-09T01:47:44;14.80;99.90
69679;DHT22;56915;52.046;4.854;2022-07-09T01:50:11;14.70;99.90
69679;DHT22;56915;52.046;4.854;2022-07-09T01:52:37;14.60;99.90
69679;DHT22;56915;52.046;4.854;2022-07-09T01:55:05;14.50;99.90
69679;DHT22;56915;52.046;4.854;2022-07-09T01:57:32;14.50;99.90
69679;DHT22;56915;52.046;4.854;2022-07-09T01:59:58;14.40;99.90
69679;DHT22;56915;52.046;4.854;2022-07-09T02:02:25;14.40;99.90
69679;DHT22;56915;52.046;4.854;2022-07-09T02:04:52;14.30;99.90
69679;DHT22;56915;52.046;4.854;2022-07-09T02:07:19;14.30;99.90
69679;DHT22;56915;52.046;4.854;2022-07-09T02:09:46;14.30;99.90
69679;DHT22;56915;52.046;4.854;2022-07-09T02:12:13;14.20;99.90
69679;DHT22;56915;52.046;4.854;2022-07-09T02:14:39;14.20;99.90
69679;DHT22;56915;52.046;4.854;2022-07-09T02:17:06;14.20;99.90
69679;DHT22;56915;52.046;4.854;2022-07-09T02:19:33;14.20;99.90
69679;DHT22;56915;52.046;4.854;2022-07-09T02:22:00;14.10;99.90
69679;DHT22;56915;52.046;4.854;2022-07-09T02:24:26;14.20;99.90
69679;DHT22;56915;52.046;4.854;2022-07-09T02:26:55;14.10;99.90
69679;DHT22;56915;52.046;4.854;2022-07-09T02:29:21;14.10;99.90
69679;DHT22;56915;52.046;4.854;2022-07-09T02:31:48;14.10;99.90
69679;DHT22;56915;52.046;4.854;2022-07-09T02:34:15;14.10;99.90
69679;DHT22;56915;52.046;4.854;2022-07-09T02:36:42;14.10;99.90
69679;DHT22;56915;52.046;4.854;2022-07-09T02:39:08;14.10;99.90
69679;DHT22;56915;52.046;4.854;2022-07-09T02:41:35;14.20;99.90
69679;DHT22;56915;52.046;4.854;2022-07-09T02:44:02;14.20;99.90
69679;DHT22;56915;52.046;4.854;2022-07-09T02:46:29;14.20;99.90
69679;DHT22;56915;52.046;4.854;2022-07-09T02:48:55;14.20;99.90
69679;DHT22;56915;52.046;4.854;2022-07-09T02:51:22;14.10;99.90
69679;DHT22;56915;52.046;4.854;2022-07-09T02:53:49;14.10;99.90
69679;DHT22;56915;52.046;4.854;2022-07-09T02:56:16;14.20;99.90
69679;DHT22;56915;52.046;4.854;2022-07-09T02:58:43;14.20;99.90
69679;DHT22;56915;52.046;4.854;2022-07-09T03:01:09;14.30;99.90
69679;DHT22;56915;52.046;4.854;2022-07-09T03:03:37;14.40;99.90
69679;DHT22;56915;52.046;4.854;2022-07-09T03:06:04;14.40;99.90
69679;DHT22;56915;52.046;4.854;2022-07-09T03:08:32;14.40;99.90
69679;DHT22;56915;52.046;4.854;2022-07-09T03:11:00;14.40;99.90
69679;DHT22;56915;52.046;4.854;2022-07-09T03:13:27;14.30;99.90
69679;DHT22;56915;52.046;4.854;2022-07-09T03:15:53;14.30;99.90
69679;DHT22;56915;52.046;4.854;2022-07-09T03:18:20;14.30;99.90
69679;DHT22;56915;52.046;4.854;2022-07-09T03:20:47;14.30;99.90
69679;DHT22;56915;52.046;4.854;2022-07-09T03:23:14;14.30;99.90
69679;DHT22;56915;52.046;4.854;2022-07-09T03:25:41;14.40;99.90
69679;DHT22;56915;52.046;4.854;2022-07-09T03:28:08;14.40;99.90
69679;DHT22;56915;52.046;4.854;2022-07-09T03:30:35;14.50;99.90
69679;DHT22;56915;52.046;4.854;2022-07-09T03:33:02;14.50;99.90
69679;DHT22;56915;52.046;4.854;2022-07-09T03:35:29;14.60;99.90
69679;DHT22;56915;52.046;4.854;2022-07-09T03:37:56;14.60;99.90
69679;DHT22;56915;52.046;4.854;2022-07-09T03:40:22;14.70;99.90
69679;DHT22;56915;52.046;4.854;2022-07-09T03:42:49;14.80;99.90
69679;DHT22;56915;52.046;4.854;2022-07-09T03:45:16;14.80;99.90
69679;DHT22;56915;52.046;4.854;2022-07-09T03:47:43;14.90;99.90
69679;DHT22;56915;52.046;4.854;2022-07-09T03:50:09;15.00;99.90
69679;DHT22;56915;52.046;4.854;2022-07-09T03:52:38;15.10;99.90
69679;DHT22;56915;52.046;4.854;2022-07-09T03:55:05;15.10;99.90
69679;DHT22;56915;52.046;4.854;2022-07-09T03:57:32;15.20;99.90
69679;DHT22;56915;52.046;4.854;2022-07-09T03:59:59;15.30;99.90
69679;DHT22;56915;52.046;4.854;2022-07-09T04:02:25;15.40;99.90
69679;DHT22;56915;52.046;4.854;2022-07-09T04:04:52;15.40;99.90
69679;DHT22;56915;52.046;4.854;2022-07-09T04:07:23;15.50;99.90
69679;DHT22;56915;52.046;4.854;2022-07-09T04:09:53;15.50;99.90
69679;DHT22;56915;52.046;4.854;2022-07-09T04:12:20;15.60;99.90
69679;DHT22;56915;52.046;4.854;2022-07-09T04:14:47;15.60;99.90
69679;DHT22;56915;52.046;4.854;2022-07-09T04:17:14;15.60;99.90
69679;DHT22;56915;52.046;4.854;2022-07-09T04:19:41;15.70;99.90
69679;DHT22;56915;52.046;4.854;2022-07-09T04:22:07;15.70;99.90
69679;DHT22;56915;52.046;4.854;2022-07-09T04:24:34;15.70;99.90
69679;DHT22;56915;52.046;4.854;2022-07-09T04:27:01;15.80;99.90
69679;DHT22;56915;52.046;4.854;2022-07-09T04:29:28;15.80;99.90
69679;DHT22;56915;52.046;4.854;2022-07-09T04:31:55;15.90;99.90
69679;DHT22;56915;52.046;4.854;2022-07-09T04:34:21;16.00;99.90
69679;DHT22;56915;52.046;4.854;2022-07-09T04:36:48;16.10;99.90
69679;DHT22;56915;52.046;4.854;2022-07-09T04:39:16;16.20;99.90
69679;DHT22;56915;52.046;4.854;2022-07-09T04:41:43;16.30;99.90
69679;DHT22;56915;52.046;4.854;2022-07-09T04:44:09;16.30;99.90
69679;DHT22;56915;52.046;4.854;2022-07-09T04:46:38;16.50;99.90
69679;DHT22;56915;52.046;4.854;2022-07-09T04:49:05;16.60;99.90
69679;DHT22;56915;52.046;4.854;2022-07-09T04:51:32;16.70;99.90
69679;DHT22;56915;52.046;4.854;2022-07-09T04:53:59;16.80;99.90
69679;DHT22;56915;52.046;4.854;2022-07-09T04:56:25;16.90;99.90
69679;DHT22;56915;52.046;4.854;2022-07-09T04:58:52;17.00;99.90
69679;DHT22;56915;52.046;4.854;2022-07-09T05:01:20;17.10;99.90
69679;DHT22;56915;52.046;4.854;2022-07-09T05:03:47;17.20;99.90
69679;DHT22;56915;52.046;4.854;2022-07-09T05:06:16;17.30;99.90
69679;DHT22;56915;52.046;4.854;2022-07-09T05:08:43;17.30;99.90
69679;DHT22;56915;52.046;4.854;2022-07-09T05:11:10;17.40;99.90
69679;DHT22;56915;52.046;4.854;2022-07-09T05:13:43;17.50;99.90
69679;DHT22;56915;52.046;4.854;2022-07-09T05:16:11;17.70;99.90
69679;DHT22;56915;52.046;4.854;2022-07-09T05:18:38;17.80;99.90
69679;DHT22;56915;52.046;4.854;2022-07-09T05:21:05;18.00;99.90
69679;DHT22;56915;52.046;4.854;2022-07-09T05:23:33;18.10;99.90
69679;DHT22;56915;52.046;4.854;2022-07-09T05:26:01;18.30;99.90
69679;DHT22;56915;52.046;4.854;2022-07-09T05:28:27;18.40;99.90
69679;DHT22;56915;52.046;4.854;2022-07-09T05:30:54;18.40;99.90
69679;DHT22;56915;52.046;4.854;2022-07-09T05:33:41;18.50;99.30
69679;DHT22;56915;52.046;4.854;2022-07-09T05:36:08;18.50;99.10
69679;DHT22;56915;52.046;4.854;2022-07-09T05:38:34;18.50;99.10
69679;DHT22;56915;52.046;4.854;2022-07-09T05:41:02;18.60;98.90
69679;DHT22;56915;52.046;4.854;2022-07-09T05:43:29;18.70;99.10
69679;DHT22;56915;52.046;4.854;2022-07-09T05:45:56;18.80;99.00
69679;DHT22;56915;52.046;4.854;2022-07-09T05:48:23;19.00;98.60
69679;DHT22;56915;52.046;4.854;2022-07-09T05:50:50;19.10;98.30
69679;DHT22;56915;52.046;4.854;2022-07-09T05:53:17;19.30;98.00
69679;DHT22;56915;52.046;4.854;2022-07-09T05:55:44;19.40;97.40
69679;DHT22;56915;52.046;4.854;2022-07-09T05:58:11;19.50;97.10
69679;DHT22;56915;52.046;4.854;2022-07-09T06:00:38;19.60;96.80
69679;DHT22;56915;52.046;4.854;2022-07-09T06:03:05;19.70;96.40
69679;DHT22;56915;52.046;4.854;2022-07-09T06:05:31;19.70;95.80
69679;DHT22;56915;52.046;4.854;2022-07-09T06:07:58;19.80;95.70
69679;DHT22;56915;52.046;4.854;2022-07-09T06:10:25;19.90;95.90
69679;DHT22;56915;52.046;4.854;2022-07-09T06:12:53;20.10;95.80
69679;DHT22;56915;52.046;4.854;2022-07-09T06:15:19;20.30;95.70
69679;DHT22;56915;52.046;4.854;2022-07-09T06:17:46;20.50;94.80
69679;DHT22;56915;52.046;4.854;2022-07-09T06:20:13;20.70;94.40
69679;DHT22;56915;52.046;4.854;2022-07-09T06:22:40;20.80;93.70
69679;DHT22;56915;52.046;4.854;2022-07-09T06:25:08;20.80;92.10
69679;DHT22;56915;52.046;4.854;2022-07-09T06:27:35;20.80;91.50
69679;DHT22;56915;52.046;4.854;2022-07-09T06:30:03;20.80;90.80
69679;DHT22;56915;52.046;4.854;2022-07-09T06:32:29;20.80;91.20
69679;DHT22;56915;52.046;4.854;2022-07-09T06:34:56;20.90;90.90
69679;DHT22;56915;52.046;4.854;2022-07-09T06:37:23;21.00;90.00
69679;DHT22;56915;52.046;4.854;2022-07-09T06:39:50;21.00;89.50
69679;DHT22;56915;52.046;4.854;2022-07-09T06:42:18;21.10;89.10
69679;DHT22;56915;52.046;4.854;2022-07-09T06:44:45;21.20;88.50
69679;DHT22;56915;52.046;4.854;2022-07-09T06:47:12;21.20;87.30
69679;DHT22;56915;52.046;4.854;2022-07-09T06:49:39;21.20;87.30
69679;DHT22;56915;52.046;4.854;2022-07-09T06:52:06;21.10;87.00
69679;DHT22;56915;52.046;4.854;2022-07-09T06:54:35;21.00;86.70
69679;DHT22;56915;52.046;4.854;2022-07-09T06:57:03;21.00;86.60
69679;DHT22;56915;52.046;4.854;2022-07-09T06:59:32;21.00;87.70
69679;DHT22;56915;52.046;4.854;2022-07-09T07:02:00;21.10;85.70
69679;DHT22;56915;52.046;4.854;2022-07-09T07:04:28;21.20;85.90
69679;DHT22;56915;52.046;4.854;2022-07-09T07:06:55;21.20;84.90
69679;DHT22;56915;52.046;4.854;2022-07-09T07:09:21;21.50;84.30
69679;DHT22;56915;52.046;4.854;2022-07-09T07:11:49;21.60;84.20
69679;DHT22;56915;52.046;4.854;2022-07-09T07:14:16;21.70;81.10
69679;DHT22;56915;52.046;4.854;2022-07-09T07:16:43;21.70;81.50
69679;DHT22;56915;52.046;4.854;2022-07-09T07:19:11;21.80;79.00
69679;DHT22;56915;52.046;4.854;2022-07-09T07:21:38;21.60;77.10
69679;DHT22;56915;52.046;4.854;2022-07-09T07:24:06;21.30;80.10
69679;DHT22;56915;52.046;4.854;2022-07-09T07:26:35;21.30;81.60
69679;DHT22;56915;52.046;4.854;2022-07-09T07:29:02;21.50;82.60
69679;DHT22;56915;52.046;4.854;2022-07-09T07:31:37;21.70;78.20
69679;DHT22;56915;52.046;4.854;2022-07-09T07:34:04;21.90;76.30
69679;DHT22;56915;52.046;4.854;2022-07-09T07:36:31;22.10;75.90
69679;DHT22;56915;52.046;4.854;2022-07-09T07:38:58;22.30;74.10
69679;DHT22;56915;52.046;4.854;2022-07-09T07:41:24;22.10;72.40
69679;DHT22;56915;52.046;4.854;2022-07-09T07:43:51;22.00;73.30
69679;DHT22;56915;52.046;4.854;2022-07-09T07:46:18;21.80;72.60
69679;DHT22;56915;52.046;4.854;2022-07-09T07:48:45;21.70;73.60
69679;DHT22;56915;52.046;4.854;2022-07-09T07:51:12;21.80;74.00
69679;DHT22;56915;52.046;4.854;2022-07-09T07:53:39;21.80;73.00
69679;DHT22;56915;52.046;4.854;2022-07-09T07:56:07;21.80;73.60
69679;DHT22;56915;52.046;4.854;2022-07-09T07:58:34;21.90;73.40
69679;DHT22;56915;52.046;4.854;2022-07-09T08:01:03;22.20;72.90
69679;DHT22;56915;52.046;4.854;2022-07-09T08:03:30;22.40;69.90
69679;DHT22;56915;52.046;4.854;2022-07-09T08:05:59;22.50;66.20
69679;DHT22;56915;52.046;4.854;2022-07-09T08:08:26;22.50;67.40
69679;DHT22;56915;52.046;4.854;2022-07-09T08:10:53;22.40;64.70
69679;DHT22;56915;52.046;4.854;2022-07-09T08:13:20;22.40;63.70
69679;DHT22;56915;52.046;4.854;2022-07-09T08:15:47;22.30;64.90
69679;DHT22;56915;52.046;4.854;2022-07-09T08:18:13;22.30;64.10
69679;DHT22;56915;52.046;4.854;2022-07-09T08:20:42;22.20;65.10
69679;DHT22;56915;52.046;4.854;2022-07-09T08:23:09;22.20;66.90
69679;DHT22;56915;52.046;4.854;2022-07-09T08:25:36;22.20;66.30
69679;DHT22;56915;52.046;4.854;2022-07-09T08:28:03;22.00;66.70
69679;DHT22;56915;52.046;4.854;2022-07-09T08:30:30;21.90;68.30
69679;DHT22;56915;52.046;4.854;2022-07-09T08:32:57;22.10;67.20
69679;DHT22;56915;52.046;4.854;2022-07-09T08:35:24;22.20;63.40
69679;DHT22;56915;52.046;4.854;2022-07-09T08:37:53;22.30;62.60
69679;DHT22;56915;52.046;4.854;2022-07-09T08:40:20;22.40;63.30
69679;DHT22;56915;52.046;4.854;2022-07-09T08:42:48;22.50;62.90
69679;DHT22;56915;52.046;4.854;2022-07-09T08:45:17;22.80;62.40
69679;DHT22;56915;52.046;4.854;2022-07-09T08:47:45;22.90;61.40
69679;DHT22;56915;52.046;4.854;2022-07-09T08:50:12;22.80;59.80
69679;DHT22;56915;52.046;4.854;2022-07-09T08:52:40;22.60;62.00
69679;DHT22;56915;52.046;4.854;2022-07-09T08:55:10;22.60;58.80
69679;DHT22;56915;52.046;4.854;2022-07-09T08:57:37;22.50;59.50
69679;DHT22;56915;52.046;4.854;2022-07-09T09:00:05;22.50;58.60
69679;DHT22;56915;52.046;4.854;2022-07-09T09:02:37;22.40;60.00
69679;DHT22;56915;52.046;4.854;2022-07-09T09:05:13;22.50;61.90
69679;DHT22;56915;52.046;4.854;2022-07-09T09:07:40;22.60;60.60
69679;DHT22;56915;52.046;4.854;2022-07-09T09:10:07;22.50;59.50
69679;DHT22;56915;52.046;4.854;2022-07-09T09:12:34;22.30;60.80
69679;DHT22;56915;52.046;4.854;2022-07-09T09:15:05;22.30;60.10
69679;DHT22;56915;52.046;4.854;2022-07-09T09:17:33;22.30;58.80
69679;DHT22;56915;52.046;4.854;2022-07-09T09:20:11;22.30;59.50
69679;DHT22;56915;52.046;4.854;2022-07-09T09:22:47;21.90;61.60
69679;DHT22;56915;52.046;4.854;2022-07-09T09:25:19;21.80;61.60
69679;DHT22;56915;52.046;4.854;2022-07-09T09:27:57;21.70;60.40
69679;DHT22;56915;52.046;4.854;2022-07-09T09:30:26;21.80;58.90
69679;DHT22;56915;52.046;4.854;2022-07-09T09:33:01;21.90;56.70
69679;DHT22;56915;52.046;4.854;2022-07-09T09:35:35;22.00;55.90
69679;DHT22;56915;52.046;4.854;2022-07-09T09:38:02;22.00;58.60
69679;DHT22;56915;52.046;4.854;2022-07-09T09:40:30;22.20;55.20
69679;DHT22;56915;52.046;4.854;2022-07-09T09:43:01;22.30;52.80
69679;DHT22;56915;52.046;4.854;2022-07-09T09:45:28;22.40;52.10
69679;DHT22;56915;52.046;4.854;2022-07-09T09:47:58;22.60;50.10
69679;DHT22;56915;52.046;4.854;2022-07-09T09:50:26;22.70;50.90
69679;DHT22;56915;52.046;4.854;2022-07-09T09:52:54;22.60;49.30
69679;DHT22;56915;52.046;4.854;2022-07-09T09:55:22;22.70;49.40
69679;DHT22;56915;52.046;4.854;2022-07-09T09:57:50;22.90;48.60
69679;DHT22;56915;52.046;4.854;2022-07-09T10:00:18;22.80;47.70
69679;DHT22;56915;52.046;4.854;2022-07-09T10:02:47;22.60;46.50
69679;DHT22;56915;52.046;4.854;2022-07-09T10:05:14;22.70;44.90
69679;DHT22;56915;52.046;4.854;2022-07-09T10:07:41;22.60;45.60
69679;DHT22;56915;52.046;4.854;2022-07-09T10:10:17;22.80;44.30
69679;DHT22;56915;52.046;4.854;2022-07-09T10:12:44;22.90;45.20
69679;DHT22;56915;52.046;4.854;2022-07-09T10:15:26;23.00;43.70
69679;DHT22;56915;52.046;4.854;2022-07-09T10:17:54;22.70;42.00
69679;DHT22;56915;52.046;4.854;2022-07-09T10:20:34;22.80;42.30
69679;DHT22;56915;52.046;4.854;2022-07-09T10:23:02;22.70;41.10
69679;DHT22;56915;52.046;4.854;2022-07-09T10:25:31;22.60;40.30
69679;DHT22;56915;52.046;4.854;2022-07-09T10:28:19;22.60;41.80
69679;DHT22;56915;52.046;4.854;2022-07-09T10:30:47;22.50;40.00
69679;DHT22;56915;52.046;4.854;2022-07-09T10:33:23;22.40;40.90
69679;DHT22;56915;52.046;4.854;2022-07-09T10:35:52;22.40;40.20
69679;DHT22;56915;52.046;4.854;2022-07-09T10:38:20;22.50;40.00
69679;DHT22;56915;52.046;4.854;2022-07-09T10:40:58;22.60;41.00
69679;DHT22;56915;52.046;4.854;2022-07-09T10:43:42;22.50;40.00
69679;DHT22;56915;52.046;4.854;2022-07-09T10:46:13;22.40;40.30
69679;DHT22;56915;52.046;4.854;2022-07-09T10:48:41;22.30;41.50
69679;DHT22;56915;52.046;4.854;2022-07-09T10:51:08;22.40;40.00
69679;DHT22;56915;52.046;4.854;2022-07-09T10:53:41;22.50;38.80
69679;DHT22;56915;52.046;4.854;2022-07-09T10:56:08;22.70;40.20
69679;DHT22;56915;52.046;4.854;2022-07-09T10:58:35;22.80;40.50
69679;DHT22;56915;52.046;4.854;2022-07-09T11:01:03;22.80;40.20
69679;DHT22;56915;52.046;4.854;2022-07-09T11:03:31;22.80;41.00
69679;DHT22;56915;52.046;4.854;2022-07-09T11:05:58;22.90;42.20
69679;DHT22;56915;52.046;4.854;2022-07-09T11:08:25;22.60;41.20
69679;DHT22;56915;52.046;4.854;2022-07-09T11:10:52;22.20;42.60
69679;DHT22;56915;52.046;4.854;2022-07-09T11:13:22;22.20;43.30
69679;DHT22;56915;52.046;4.854;2022-07-09T11:15:50;22.50;43.10
69679;DHT22;56915;52.046;4.854;2022-07-09T11:18:17;22.70;41.00
69679;DHT22;56915;52.046;4.854;2022-07-09T11:20:45;22.80;40.60
69679;DHT22;56915;52.046;4.854;2022-07-09T11:23:14;23.00;40.00
69679;DHT22;56915;52.046;4.854;2022-07-09T11:25:42;23.20;40.40
69679;DHT22;56915;52.046;4.854;2022-07-09T11:28:19;23.30;41.30
69679;DHT22;56915;52.046;4.854;2022-07-09T11:31:00;23.30;41.30
69679;DHT22;56915;52.046;4.854;2022-07-09T11:33:29;22.90;41.00
69679;DHT22;56915;52.046;4.854;2022-07-09T11:36:16;22.50;40.00
69679;DHT22;56915;52.046;4.854;2022-07-09T11:38:51;22.20;42.00
69679;DHT22;56915;52.046;4.854;2022-07-09T11:41:18;22.10;42.90
69679;DHT22;56915;52.046;4.854;2022-07-09T11:43:49;22.20;43.40
69679;DHT22;56915;52.046;4.854;2022-07-09T11:46:20;22.10;43.00
69679;DHT22;56915;52.046;4.854;2022-07-09T11:48:54;22.30;42.60
69679;DHT22;56915;52.046;4.854;2022-07-09T11:51:31;22.40;42.80
69679;DHT22;56915;52.046;4.854;2022-07-09T11:53:57;22.30;41.10
69679;DHT22;56915;52.046;4.854;2022-07-09T11:56:24;22.30;42.40
69679;DHT22;56915;52.046;4.854;2022-07-09T11:58:52;22.40;43.30
69679;DHT22;56915;52.046;4.854;2022-07-09T12:01:19;22.50;42.00
69679;DHT22;56915;52.046;4.854;2022-07-09T12:03:50;22.40;41.00
69679;DHT22;56915;52.046;4.854;2022-07-09T12:06:17;22.10;42.30
69679;DHT22;56915;52.046;4.854;2022-07-09T12:08:44;22.10;41.20
69679;DHT22;56915;52.046;4.854;2022-07-09T12:11:10;22.20;42.10
69679;DHT22;56915;52.046;4.854;2022-07-09T12:13:37;22.50;42.30
69679;DHT22;56915;52.046;4.854;2022-07-09T12:16:07;22.50;40.80
69679;DHT22;56915;52.046;4.854;2022-07-09T12:18:34;22.30;41.90
69679;DHT22;56915;52.046;4.854;2022-07-09T12:21:01;22.50;43.10
69679;DHT22;56915;52.046;4.854;2022-07-09T12:23:28;22.60;41.50
69679;DHT22;56915;52.046;4.854;2022-07-09T12:25:55;22.60;41.60
69679;DHT22;56915;52.046;4.854;2022-07-09T12:28:22;22.40;40.80
69679;DHT22;56915;52.046;4.854;2022-07-09T12:30:48;22.30;41.10
69679;DHT22;56915;52.046;4.854;2022-07-09T12:33:16;22.40;40.70
69679;DHT22;56915;52.046;4.854;2022-07-09T12:35:43;22.50;40.00
69679;DHT22;56915;52.046;4.854;2022-07-09T12:38:10;22.60;41.00
69679;DHT22;56915;52.046;4.854;2022-07-09T12:40:36;22.80;40.40
69679;DHT22;56915;52.046;4.854;2022-07-09T12:43:03;23.00;39.60
69679;DHT22;56915;52.046;4.854;2022-07-09T12:45:30;23.00;38.80
69679;DHT22;56915;52.046;4.854;2022-07-09T12:47:57;23.00;38.40
69679;DHT22;56915;52.046;4.854;2022-07-09T12:50:24;23.00;38.20
69679;DHT22;56915;52.046;4.854;2022-07-09T12:52:50;23.20;38.80
69679;DHT22;56915;52.046;4.854;2022-07-09T12:55:18;23.20;38.00
69679;DHT22;56915;52.046;4.854;2022-07-09T12:57:44;22.90;38.80
69679;DHT22;56915;52.046;4.854;2022-07-09T13:00:12;22.80;40.80
69679;DHT22;56915;52.046;4.854;2022-07-09T13:02:40;22.80;39.70
69679;DHT22;56915;52.046;4.854;2022-07-09T13:05:07;22.80;39.60
69679;DHT22;56915;52.046;4.854;2022-07-09T13:07:36;23.00;40.10
69679;DHT22;56915;52.046;4.854;2022-07-09T13:10:03;23.00;39.10
69679;DHT22;56915;52.046;4.854;2022-07-09T13:12:30;22.90;40.20
69679;DHT22;56915;52.046;4.854;2022-07-09T13:14:59;23.00;38.60
69679;DHT22;56915;52.046;4.854;2022-07-09T13:17:26;23.20;38.90
69679;DHT22;56915;52.046;4.854;2022-07-09T13:19:58;23.40;39.10
69679;DHT22;56915;52.046;4.854;2022-07-09T13:22:26;23.70;37.90
69679;DHT22;56915;52.046;4.854;2022-07-09T13:24:53;23.70;37.10
69679;DHT22;56915;52.046;4.854;2022-07-09T13:27:35;23.60;36.90
69679;DHT22;56915;52.046;4.854;2022-07-09T13:30:02;23.40;37.40
69679;DHT22;56915;52.046;4.854;2022-07-09T13:32:29;23.20;38.30
69679;DHT22;56915;52.046;4.854;2022-07-09T13:34:56;23.10;38.70
69679;DHT22;56915;52.046;4.854;2022-07-09T13:37:23;23.40;38.60
69679;DHT22;56915;52.046;4.854;2022-07-09T13:39:51;23.90;38.30
69679;DHT22;56915;52.046;4.854;2022-07-09T13:42:19;24.10;37.00
69679;DHT22;56915;52.046;4.854;2022-07-09T13:44:46;24.40;37.30
69679;DHT22;56915;52.046;4.854;2022-07-09T13:47:13;24.70;35.90
69679;DHT22;56915;52.046;4.854;2022-07-09T13:49:41;24.50;36.30
69679;DHT22;56915;52.046;4.854;2022-07-09T13:52:07;24.50;36.90
69679;DHT22;56915;52.046;4.854;2022-07-09T13:54:35;24.70;36.50
69679;DHT22;56915;52.046;4.854;2022-07-09T13:57:02;24.80;35.50
69679;DHT22;56915;52.046;4.854;2022-07-09T13:59:29;24.70;36.00
69679;DHT22;56915;52.046;4.854;2022-07-09T14:01:59;25.00;36.40
69679;DHT22;56915;52.046;4.854;2022-07-09T14:04:26;25.20;36.30
69679;DHT22;56915;52.046;4.854;2022-07-09T14:06:53;25.00;35.90
69679;DHT22;56915;52.046;4.854;2022-07-09T14:09:20;24.70;37.70
69679;DHT22;56915;52.046;4.854;2022-07-09T14:11:49;24.50;39.10
69679;DHT22;56915;52.046;4.854;2022-07-09T14:14:16;24.40;39.70
69679;DHT22;56915;52.046;4.854;2022-07-09T14:16:43;24.40;39.50
69679;DHT22;56915;52.046;4.854;2022-07-09T14:19:10;24.30;39.30
69679;DHT22;56915;52.046;4.854;2022-07-09T14:21:38;23.80;39.60
69679;DHT22;56915;52.046;4.854;2022-07-09T14:24:12;23.40;41.00
69679;DHT22;56915;52.046;4.854;2022-07-09T14:26:42;23.00;41.80
69679;DHT22;56915;52.046;4.854;2022-07-09T14:29:12;22.60;43.30
69679;DHT22;56915;52.046;4.854;2022-07-09T14:31:45;22.30;44.50
69679;DHT22;56915;52.046;4.854;2022-07-09T14:34:12;22.20;44.00
69679;DHT22;56915;52.046;4.854;2022-07-09T14:36:39;22.40;43.80
69679;DHT22;56915;52.046;4.854;2022-07-09T14:39:06;23.00;44.20
69679;DHT22;56915;52.046;4.854;2022-07-09T14:41:33;23.30;40.70
69679;DHT22;56915;52.046;4.854;2022-07-09T14:44:01;23.40;40.80
69679;DHT22;56915;52.046;4.854;2022-07-09T14:46:27;23.60;40.60
69679;DHT22;56915;52.046;4.854;2022-07-09T14:48:55;23.80;39.30
69679;DHT22;56915;52.046;4.854;2022-07-09T14:51:22;23.70;38.10
69679;DHT22;56915;52.046;4.854;2022-07-09T14:53:49;23.50;38.80
69679;DHT22;56915;52.046;4.854;2022-07-09T14:56:16;23.30;39.50
69679;DHT22;56915;52.046;4.854;2022-07-09T14:58:43;23.40;39.20
69679;DHT22;56915;52.046;4.854;2022-07-09T15:01:10;23.50;39.20
69679;DHT22;56915;52.046;4.854;2022-07-09T15:03:37;23.50;38.80
69679;DHT22;56915;52.046;4.854;2022-07-09T15:06:04;23.50;38.30
69679;DHT22;56915;52.046;4.854;2022-07-09T15:08:31;23.70;37.90
69679;DHT22;56915;52.046;4.854;2022-07-09T15:10:59;24.20;38.20
69679;DHT22;56915;52.046;4.854;2022-07-09T15:13:26;25.60;36.90
69679;DHT22;56915;52.046;4.854;2022-07-09T15:15:55;26.90;33.70
69679;DHT22;56915;52.046;4.854;2022-07-09T15:18:22;28.00;30.50
69679;DHT22;56915;52.046;4.854;2022-07-09T15:20:50;28.20;28.90
69679;DHT22;56915;52.046;4.854;2022-07-09T15:23:16;27.50;29.10
69679;DHT22;56915;52.046;4.854;2022-07-09T15:25:43;27.50;29.50
69679;DHT22;56915;52.046;4.854;2022-07-09T15:28:10;26.80;29.60
69679;DHT22;56915;52.046;4.854;2022-07-09T15:30:40;26.10;30.20
69679;DHT22;56915;52.046;4.854;2022-07-09T15:33:07;25.60;30.80
69679;DHT22;56915;52.046;4.854;2022-07-09T15:35:35;25.10;31.40